sensor_id;sensor_type;location;lat;lon;timestamp;P1;durP1;ratioP1;P2;durP2;ratioP2
45848;SDS011;31567;54.600;9.842;2023-12-20T00:02:02;16.58;;;1.63;;
45848;SDS011;31567;54.600;9.842;2023-12-20T00:05:42;18.67;;;1.83;;
45848;SDS011;31567;54.600;9.842;2023-12-20T00:09:21;17.65;;;1.85;;
45848;SDS011;31567;54.600;9.842;2023-12-20T00:13:01;16.23;;;1.70;;
45848;SDS011;31567;54.600;9.842;2023-12-20T00:16:40;14.00;;;2.13;;
45848;SDS011;31567;54.600;9.842;2023-12-20T00:20:20;15.52;;;1.75;;
45848;SDS011;31567;54.600;9.842;2023-12-20T00:23:59;17.73;;;1.67;;
45848;SDS011;31567;54.600;9.842;2023-12-20T00:27:39;13.43;;;1.77;;
45848;SDS011;31567;54.600;9.842;2023-12-20T00:31:18;14.52;;;1.92;;
45848;SDS011;31567;54.600;9.842;2023-12-20T00:34:58;11.73;;;1.50;;
45848;SDS011;31567;54.600;9.842;2023-12-20T00:38:37;23.05;;;2.65;;
45848;SDS011;31567;54.600;9.842;2023-12-20T00:42:17;17.17;;;2.60;;
45848;SDS011;31567;54.600;9.842;2023-12-20T00:45:57;15.75;;;1.90;;
45848;SDS011;31567;54.600;9.842;2023-12-20T00:49:38;14.98;;;2.05;;
45848;SDS011;31567;54.600;9.842;2023-12-20T00:53:18;16.55;;;1.83;;
45848;SDS011;31567;54.600;9.842;2023-12-20T00:56:57;19.85;;;2.20;;
45848;SDS011;31567;54.600;9.842;2023-12-20T01:00:37;13.95;;;1.45;;
45848;SDS011;31567;54.600;9.842;2023-12-20T01:04:17;15.27;;;2.33;;
45848;SDS011;31567;54.600;9.842;2023-12-20T01:07:56;14.70;;;2.00;;
45848;SDS011;31567;54.600;9.842;2023-12-20T01:11:36;17.88;;;1.88;;
45848;SDS011;31567;54.600;9.842;2023-12-20T01:15:15;14.90;;;3.03;;
45848;SDS011;31567;54.600;9.842;2023-12-20T01:18:55;13.20;;;2.15;;
45848;SDS011;31567;54.600;9.842;2023-12-20T01:22:34;11.32;;;2.35;;
45848;SDS011;31567;54.600;9.842;2023-12-20T01:26:14;14.75;;;1.95;;
45848;SDS011;31567;54.600;9.842;2023-12-20T01:29:54;17.10;;;2.45;;
45848;SDS011;31567;54.600;9.842;2023-12-20T01:33:33;12.15;;;2.33;;
45848;SDS011;31567;54.600;9.842;2023-12-20T01:37:13;12.43;;;1.52;;
45848;SDS011;31567;54.600;9.842;2023-12-20T01:40:53;14.70;;;2.17;;
45848;SDS011;31567;54.600;9.842;2023-12-20T01:44:32;10.23;;;2.70;;
45848;SDS011;31567;54.600;9.842;2023-12-20T01:48:12;12.68;;;1.90;;
45848;SDS011;31567;54.600;9.842;2023-12-20T01:51:53;13.10;;;2.50;;
45848;SDS011;31567;54.600;9.842;2023-12-20T01:55:35;9.88;;;1.50;;
45848;SDS011;31567;54.600;9.842;2023-12-20T01:59:18;10.40;;;1.55;;
45848;SDS011;31567;54.600;9.842;2023-12-20T02:03:00;12.23;;;2.35;;
45848;SDS011;31567;54.600;9.842;2023-12-20T02:06:41;3.55;;;1.23;;
45848;SDS011;31567;54.600;9.842;2023-12-20T02:10:23;9.40;;;1.20;;
45848;SDS011;31567;54.600;9.842;2023-12-20T02:14:03;11.75;;;1.38;;
45848;SDS011;31567;54.600;9.842;2023-12-20T02:17:42;3.60;;;0.90;;
45848;SDS011;31567;54.600;9.842;2023-12-20T02:21:33;6.75;;;0.98;;
45848;SDS011;31567;54.600;9.842;2023-12-20T02:25:14;12.75;;;1.23;;
45848;SDS011;31567;54.600;9.842;2023-12-20T02:28:53;6.95;;;1.05;;
45848;SDS011;31567;54.600;9.842;2023-12-20T02:32:33;5.20;;;0.70;;
45848;SDS011;31567;54.600;9.842;2023-12-20T02:36:13;7.60;;;0.75;;
45848;SDS011;31567;54.600;9.842;2023-12-20T02:39:52;6.70;;;1.50;;
45848;SDS011;31567;54.600;9.842;2023-12-20T02:43:32;10.23;;;1.70;;
45848;SDS011;31567;54.600;9.842;2023-12-20T02:47:11;7.97;;;1.20;;
45848;SDS011;31567;54.600;9.842;2023-12-20T02:50:51;13.73;;;2.25;;
45848;SDS011;31567;54.600;9.842;2023-12-20T02:54:31;12.32;;;1.50;;
45848;SDS011;31567;54.600;9.842;2023-12-20T02:58:10;14.63;;;1.52;;
45848;SDS011;31567;54.600;9.842;2023-12-20T03:01:50;11.48;;;1.73;;
45848;SDS011;31567;54.600;9.842;2023-12-20T03:05:29;10.23;;;1.55;;
45848;SDS011;31567;54.600;9.842;2023-12-20T03:09:09;11.65;;;1.48;;
45848;SDS011;31567;54.600;9.842;2023-12-20T03:12:48;15.85;;;1.80;;
45848;SDS011;31567;54.600;9.842;2023-12-20T03:16:28;8.07;;;1.30;;
45848;SDS011;31567;54.600;9.842;2023-12-20T03:20:08;14.23;;;1.85;;
45848;SDS011;31567;54.600;9.842;2023-12-20T03:23:47;12.52;;;1.95;;
45848;SDS011;31567;54.600;9.842;2023-12-20T03:27:27;13.45;;;1.90;;
45848;SDS011;31567;54.600;9.842;2023-12-20T03:31:06;15.38;;;1.92;;
45848;SDS011;31567;54.600;9.842;2023-12-20T03:34:46;10.38;;;1.63;;
45848;SDS011;31567;54.600;9.842;2023-12-20T03:38:27;11.05;;;1.67;;
45848;SDS011;31567;54.600;9.842;2023-12-20T03:42:06;18.08;;;2.22;;
45848;SDS011;31567;54.600;9.842;2023-12-20T03:45:46;10.15;;;1.77;;
45848;SDS011;31567;54.600;9.842;2023-12-20T03:49:25;14.00;;;2.72;;
45848;SDS011;31567;54.600;9.842;2023-12-20T03:53:05;9.43;;;1.98;;
45848;SDS011;31567;54.600;9.842;2023-12-20T03:56:44;11.55;;;1.65;;
45848;SDS011;31567;54.600;9.842;2023-12-20T04:00:24;12.50;;;1.90;;
45848;SDS011;31567;54.600;9.842;2023-12-20T04:04:03;12.23;;;2.50;;
45848;SDS011;31567;54.600;9.842;2023-12-20T04:07:43;14.00;;;2.22;;
45848;SDS011;31567;54.600;9.842;2023-12-20T04:11:23;11.48;;;1.70;;
45848;SDS011;31567;54.600;9.842;2023-12-20T04:15:02;16.80;;;4.30;;
45848;SDS011;31567;54.600;9.842;2023-12-20T04:18:47;11.75;;;2.70;;
45848;SDS011;31567;54.600;9.842;2023-12-20T04:22:27;16.23;;;2.78;;
45848;SDS011;31567;54.600;9.842;2023-12-20T04:26:06;12.18;;;2.53;;
45848;SDS011;31567;54.600;9.842;2023-12-20T04:29:46;16.77;;;2.00;;
45848;SDS011;31567;54.600;9.842;2023-12-20T04:33:26;11.50;;;1.77;;
45848;SDS011;31567;54.600;9.842;2023-12-20T04:37:05;12.98;;;1.98;;
45848;SDS011;31567;54.600;9.842;2023-12-20T04:40:45;16.52;;;1.80;;
45848;SDS011;31567;54.600;9.842;2023-12-20T04:44:24;12.10;;;2.10;;
45848;SDS011;31567;54.600;9.842;2023-12-20T04:48:04;11.32;;;1.65;;
45848;SDS011;31567;54.600;9.842;2023-12-20T04:51:44;11.07;;;1.67;;
45848;SDS011;31567;54.600;9.842;2023-12-20T04:55:23;13.80;;;1.45;;
45848;SDS011;31567;54.600;9.842;2023-12-20T04:59:03;14.27;;;1.80;;
45848;SDS011;31567;54.600;9.842;2023-12-20T05:02:42;11.68;;;2.65;;
45848;SDS011;31567;54.600;9.842;2023-12-20T05:06:22;16.20;;;2.35;;
45848;SDS011;31567;54.600;9.842;2023-12-20T05:10:02;12.80;;;2.30;;
45848;SDS011;31567;54.600;9.842;2023-12-20T05:13:43;16.77;;;3.42;;
45848;SDS011;31567;54.600;9.842;2023-12-20T05:17:22;17.27;;;2.30;;
45848;SDS011;31567;54.600;9.842;2023-12-20T05:21:02;19.63;;;2.55;;
45848;SDS011;31567;54.600;9.842;2023-12-20T05:24:42;23.45;;;3.30;;
45848;SDS011;31567;54.600;9.842;2023-12-20T05:28:21;24.17;;;3.28;;
45848;SDS011;31567;54.600;9.842;2023-12-20T05:32:01;18.55;;;2.90;;
45848;SDS011;31567;54.600;9.842;2023-12-20T05:35:42;28.50;;;4.22;;
45848;SDS011;31567;54.600;9.842;2023-12-20T05:39:22;21.45;;;3.05;;
45848;SDS011;31567;54.600;9.842;2023-12-20T05:43:01;22.27;;;3.33;;
45848;SDS011;31567;54.600;9.842;2023-12-20T05:46:41;9.20;;;1.90;;
45848;SDS011;31567;54.600;9.842;2023-12-20T05:50:21;5.40;;;0.82;;
45848;SDS011;31567;54.600;9.842;2023-12-20T05:54:00;5.72;;;1.13;;
45848;SDS011;31567;54.600;9.842;2023-12-20T05:57:40;12.85;;;1.63;;
45848;SDS011;31567;54.600;9.842;2023-12-20T06:01:19;8.48;;;1.40;;
45848;SDS011;31567;54.600;9.842;2023-12-20T06:04:59;7.18;;;1.30;;
45848;SDS011;31567;54.600;9.842;2023-12-20T06:08:38;7.60;;;1.00;;
45848;SDS011;31567;54.600;9.842;2023-12-20T06:12:18;11.10;;;1.70;;
45848;SDS011;31567;54.600;9.842;2023-12-20T06:15:57;4.55;;;0.82;;
45848;SDS011;31567;54.600;9.842;2023-12-20T06:19:37;11.73;;;1.33;;
45848;SDS011;31567;54.600;9.842;2023-12-20T06:23:16;9.52;;;1.42;;
45848;SDS011;31567;54.600;9.842;2023-12-20T06:26:56;7.25;;;1.65;;
45848;SDS011;31567;54.600;9.842;2023-12-20T06:30:36;17.45;;;2.45;;
45848;SDS011;31567;54.600;9.842;2023-12-20T06:34:15;9.30;;;1.73;;
45848;SDS011;31567;54.600;9.842;2023-12-20T06:37:55;12.57;;;1.95;;
45848;SDS011;31567;54.600;9.842;2023-12-20T06:41:34;9.50;;;1.38;;
45848;SDS011;31567;54.600;9.842;2023-12-20T06:45:14;9.27;;;1.35;;
45848;SDS011;31567;54.600;9.842;2023-12-20T06:48:53;10.98;;;3.92;;
45848;SDS011;31567;54.600;9.842;2023-12-20T06:52:33;10.88;;;1.63;;
45848;SDS011;31567;54.600;9.842;2023-12-20T06:56:14;10.25;;;1.90;;
45848;SDS011;31567;54.600;9.842;2023-12-20T06:59:55;11.25;;;1.58;;
45848;SDS011;31567;54.600;9.842;2023-12-20T07:03:35;16.08;;;1.75;;
45848;SDS011;31567;54.600;9.842;2023-12-20T07:07:14;13.45;;;2.17;;
45848;SDS011;31567;54.600;9.842;2023-12-20T07:10:54;11.45;;;2.38;;
45848;SDS011;31567;54.600;9.842;2023-12-20T07:14:33;21.77;;;2.20;;
45848;SDS011;31567;54.600;9.842;2023-12-20T07:18:13;12.80;;;2.10;;
45848;SDS011;31567;54.600;9.842;2023-12-20T07:21:52;18.08;;;2.55;;
45848;SDS011;31567;54.600;9.842;2023-12-20T07:25:32;17.98;;;3.05;;
45848;SDS011;31567;54.600;9.842;2023-12-20T07:29:11;14.30;;;1.80;;
45848;SDS011;31567;54.600;9.842;2023-12-20T07:32:51;14.60;;;2.70;;
45848;SDS011;31567;54.600;9.842;2023-12-20T07:36:31;19.15;;;3.03;;
45848;SDS011;31567;54.600;9.842;2023-12-20T07:40:11;21.40;;;3.42;;
45848;SDS011;31567;54.600;9.842;2023-12-20T07:43:50;19.90;;;3.38;;
45848;SDS011;31567;54.600;9.842;2023-12-20T07:47:30;16.80;;;2.45;;
45848;SDS011;31567;54.600;9.842;2023-12-20T07:51:09;16.92;;;2.90;;
45848;SDS011;31567;54.600;9.842;2023-12-20T07:54:49;21.65;;;2.85;;
45848;SDS011;31567;54.600;9.842;2023-12-20T07:58:28;21.67;;;4.72;;
45848;SDS011;31567;54.600;9.842;2023-12-20T08:02:10;21.92;;;2.70;;
45848;SDS011;31567;54.600;9.842;2023-12-20T08:05:49;22.38;;;3.03;;
45848;SDS011;31567;54.600;9.842;2023-12-20T08:09:29;17.10;;;3.47;;
45848;SDS011;31567;54.600;9.842;2023-12-20T08:13:08;7.05;;;1.48;;
45848;SDS011;31567;54.600;9.842;2023-12-20T08:16:48;4.32;;;0.77;;
45848;SDS011;31567;54.600;9.842;2023-12-20T08:20:27;5.32;;;0.98;;
45848;SDS011;31567;54.600;9.842;2023-12-20T08:24:07;2.60;;;0.50;;
45848;SDS011;31567;54.600;9.842;2023-12-20T08:27:47;5.00;;;0.77;;
45848;SDS011;31567;54.600;9.842;2023-12-20T08:31:26;2.42;;;0.80;;
45848;SDS011;31567;54.600;9.842;2023-12-20T08:35:06;0.80;;;0.20;;
45848;SDS011;31567;54.600;9.842;2023-12-20T08:38:46;1.95;;;0.32;;
45848;SDS011;31567;54.600;9.842;2023-12-20T08:42:25;2.75;;;0.40;;
45848;SDS011;31567;54.600;9.842;2023-12-20T08:46:10;1.85;;;0.40;;
45848;SDS011;31567;54.600;9.842;2023-12-20T08:49:49;1.45;;;0.40;;
45848;SDS011;31567;54.600;9.842;2023-12-20T08:53:29;1.50;;;0.20;;
45848;SDS011;31567;54.600;9.842;2023-12-20T08:57:09;3.83;;;0.35;;
45848;SDS011;31567;54.600;9.842;2023-12-20T09:00:49;2.95;;;0.47;;
45848;SDS011;31567;54.600;9.842;2023-12-20T09:04:28;3.53;;;0.82;;
45848;SDS011;31567;54.600;9.842;2023-12-20T09:08:08;2.53;;;0.50;;
45848;SDS011;31567;54.600;9.842;2023-12-20T09:11:49;5.03;;;0.82;;
45848;SDS011;31567;54.600;9.842;2023-12-20T09:15:30;5.40;;;0.90;;
45848;SDS011;31567;54.600;9.842;2023-12-20T09:19:09;3.22;;;0.40;;
45848;SDS011;31567;54.600;9.842;2023-12-20T09:22:49;3.05;;;0.45;;
45848;SDS011;31567;54.600;9.842;2023-12-20T09:26:28;9.73;;;1.70;;
45848;SDS011;31567;54.600;9.842;2023-12-20T09:30:08;6.63;;;0.57;;
45848;SDS011;31567;54.600;9.842;2023-12-20T09:33:48;6.32;;;1.75;;
45848;SDS011;31567;54.600;9.842;2023-12-20T09:37:28;9.77;;;0.80;;
45848;SDS011;31567;54.600;9.842;2023-12-20T09:41:07;4.32;;;0.70;;
45848;SDS011;31567;54.600;9.842;2023-12-20T09:44:47;5.45;;;0.82;;
45848;SDS011;31567;54.600;9.842;2023-12-20T09:48:26;5.40;;;1.35;;
45848;SDS011;31567;54.600;9.842;2023-12-20T09:52:07;5.15;;;1.13;;
45848;SDS011;31567;54.600;9.842;2023-12-20T09:55:50;3.45;;;0.50;;
45848;SDS011;31567;54.600;9.842;2023-12-20T09:59:31;8.00;;;0.98;;
45848;SDS011;31567;54.600;9.842;2023-12-20T10:03:10;4.65;;;1.27;;
45848;SDS011;31567;54.600;9.842;2023-12-20T10:06:52;5.45;;;0.68;;
45848;SDS011;31567;54.600;9.842;2023-12-20T10:10:32;0.85;;;0.28;;
45848;SDS011;31567;54.600;9.842;2023-12-20T10:14:11;4.03;;;0.40;;
45848;SDS011;31567;54.600;9.842;2023-12-20T10:17:51;3.75;;;0.50;;
45848;SDS011;31567;54.600;9.842;2023-12-20T10:21:31;6.32;;;0.70;;
45848;SDS011;31567;54.600;9.842;2023-12-20T10:25:10;7.22;;;0.88;;
45848;SDS011;31567;54.600;9.842;2023-12-20T10:28:53;2.85;;;0.60;;
45848;SDS011;31567;54.600;9.842;2023-12-20T10:32:34;4.40;;;0.98;;
45848;SDS011;31567;54.600;9.842;2023-12-20T10:36:14;5.65;;;0.55;;
45848;SDS011;31567;54.600;9.842;2023-12-20T10:39:53;9.60;;;1.35;;
45848;SDS011;31567;54.600;9.842;2023-12-20T10:43:36;4.88;;;0.95;;
45848;SDS011;31567;54.600;9.842;2023-12-20T10:47:17;3.05;;;0.68;;
45848;SDS011;31567;54.600;9.842;2023-12-20T10:50:57;5.45;;;0.70;;
45848;SDS011;31567;54.600;9.842;2023-12-20T10:54:38;2.88;;;0.40;;
45848;SDS011;31567;54.600;9.842;2023-12-20T10:58:18;6.28;;;1.08;;
45848;SDS011;31567;54.600;9.842;2023-12-20T11:02:00;6.22;;;1.23;;
45848;SDS011;31567;54.600;9.842;2023-12-20T11:06:03;5.88;;;1.33;;
45848;SDS011;31567;54.600;9.842;2023-12-20T11:09:56;8.13;;;1.52;;
45848;SDS011;31567;54.600;9.842;2023-12-20T11:13:40;7.88;;;2.05;;
45848;SDS011;31567;54.600;9.842;2023-12-20T11:17:34;8.10;;;1.13;;
45848;SDS011;31567;54.600;9.842;2023-12-20T11:21:13;8.23;;;1.35;;
45848;SDS011;31567;54.600;9.842;2023-12-20T11:24:55;6.57;;;1.25;;
45848;SDS011;31567;54.600;9.842;2023-12-20T11:28:41;7.93;;;1.77;;
45848;SDS011;31567;54.600;9.842;2023-12-20T11:36:03;10.23;;;1.45;;
45848;SDS011;31567;54.600;9.842;2023-12-20T11:39:55;7.68;;;1.25;;
45848;SDS011;31567;54.600;9.842;2023-12-20T11:43:39;11.45;;;1.98;;
45848;SDS011;31567;54.600;9.842;2023-12-20T11:47:19;12.27;;;1.70;;
45848;SDS011;31567;54.600;9.842;2023-12-20T11:50:59;9.93;;;2.17;;
45848;SDS011;31567;54.600;9.842;2023-12-20T11:54:39;9.50;;;2.05;;
45848;SDS011;31567;54.600;9.842;2023-12-20T11:58:18;7.10;;;1.25;;
45848;SDS011;31567;54.600;9.842;2023-12-20T12:01:58;9.45;;;1.70;;
45848;SDS011;31567;54.600;9.842;2023-12-20T12:05:39;6.82;;;1.80;;
45848;SDS011;31567;54.600;9.842;2023-12-20T12:09:19;7.80;;;1.52;;
45848;SDS011;31567;54.600;9.842;2023-12-20T12:12:59;9.73;;;1.50;;
45848;SDS011;31567;54.600;9.842;2023-12-20T12:16:41;8.60;;;1.60;;
45848;SDS011;31567;54.600;9.842;2023-12-20T12:20:21;11.63;;;2.15;;
45848;SDS011;31567;54.600;9.842;2023-12-20T12:24:09;11.10;;;2.92;;
45848;SDS011;31567;54.600;9.842;2023-12-20T12:31:29;10.13;;;2.60;;
45848;SDS011;31567;54.600;9.842;2023-12-20T12:35:09;15.40;;;2.90;;
45848;SDS011;31567;54.600;9.842;2023-12-20T12:38:49;7.57;;;1.90;;
45848;SDS011;31567;54.600;9.842;2023-12-20T12:42:29;11.40;;;2.97;;
45848;SDS011;31567;54.600;9.842;2023-12-20T12:46:08;9.05;;;2.50;;
45848;SDS011;31567;54.600;9.842;2023-12-20T12:49:49;10.68;;;2.50;;
45848;SDS011;31567;54.600;9.842;2023-12-20T12:53:30;11.57;;;2.78;;
45848;SDS011;31567;54.600;9.842;2023-12-20T12:57:10;14.63;;;3.10;;
45848;SDS011;31567;54.600;9.842;2023-12-20T13:00:50;13.93;;;3.05;;
45848;SDS011;31567;54.600;9.842;2023-12-20T13:04:29;11.00;;;2.42;;
45848;SDS011;31567;54.600;9.842;2023-12-20T13:08:09;13.10;;;2.22;;
45848;SDS011;31567;54.600;9.842;2023-12-20T13:11:51;14.38;;;2.75;;
45848;SDS011;31567;54.600;9.842;2023-12-20T13:15:30;15.48;;;3.85;;
45848;SDS011;31567;54.600;9.842;2023-12-20T13:19:10;14.50;;;3.28;;
45848;SDS011;31567;54.600;9.842;2023-12-20T13:22:49;13.73;;;2.72;;
45848;SDS011;31567;54.600;9.842;2023-12-20T13:26:29;11.63;;;3.45;;
45848;SDS011;31567;54.600;9.842;2023-12-20T13:30:08;11.00;;;2.80;;
45848;SDS011;31567;54.600;9.842;2023-12-20T13:33:48;13.07;;;3.50;;
45848;SDS011;31567;54.600;9.842;2023-12-20T13:37:28;17.13;;;3.78;;
45848;SDS011;31567;54.600;9.842;2023-12-20T13:41:08;14.40;;;3.20;;
45848;SDS011;31567;54.600;9.842;2023-12-20T13:44:47;14.30;;;5.22;;
45848;SDS011;31567;54.600;9.842;2023-12-20T13:48:27;11.25;;;3.00;;
45848;SDS011;31567;54.600;9.842;2023-12-20T13:52:06;14.18;;;2.85;;
45848;SDS011;31567;54.600;9.842;2023-12-20T13:55:46;7.38;;;2.47;;
45848;SDS011;31567;54.600;9.842;2023-12-20T13:59:26;12.75;;;3.25;;
45848;SDS011;31567;54.600;9.842;2023-12-20T14:03:05;16.67;;;4.28;;
45848;SDS011;31567;54.600;9.842;2023-12-20T14:06:45;18.92;;;4.05;;
45848;SDS011;31567;54.600;9.842;2023-12-20T14:10:24;16.10;;;3.72;;
45848;SDS011;31567;54.600;9.842;2023-12-20T14:14:07;19.00;;;3.88;;
45848;SDS011;31567;54.600;9.842;2023-12-20T14:17:46;15.48;;;4.07;;
45848;SDS011;31567;54.600;9.842;2023-12-20T14:21:26;11.73;;;2.55;;
45848;SDS011;31567;54.600;9.842;2023-12-20T14:25:06;8.27;;;3.28;;
45848;SDS011;31567;54.600;9.842;2023-12-20T14:28:46;15.63;;;4.40;;
45848;SDS011;31567;54.600;9.842;2023-12-20T14:32:25;14.85;;;4.07;;
45848;SDS011;31567;54.600;9.842;2023-12-20T14:36:06;8.27;;;3.50;;
45848;SDS011;31567;54.600;9.842;2023-12-20T14:39:46;11.73;;;3.40;;
45848;SDS011;31567;54.600;9.842;2023-12-20T14:43:26;12.40;;;3.63;;
45848;SDS011;31567;54.600;9.842;2023-12-20T14:47:06;15.60;;;3.75;;
45848;SDS011;31567;54.600;9.842;2023-12-20T14:50:46;12.38;;;3.78;;
45848;SDS011;31567;54.600;9.842;2023-12-20T14:54:27;18.52;;;3.80;;
45848;SDS011;31567;54.600;9.842;2023-12-20T14:58:07;15.88;;;3.45;;
45848;SDS011;31567;54.600;9.842;2023-12-20T15:01:46;11.77;;;4.55;;
45848;SDS011;31567;54.600;9.842;2023-12-20T15:05:26;14.63;;;4.25;;
45848;SDS011;31567;54.600;9.842;2023-12-20T15:09:05;19.85;;;4.47;;
45848;SDS011;31567;54.600;9.842;2023-12-20T15:12:45;17.45;;;4.82;;
45848;SDS011;31567;54.600;9.842;2023-12-20T15:16:25;19.48;;;4.85;;
45848;SDS011;31567;54.600;9.842;2023-12-20T15:20:04;20.20;;;4.63;;
45848;SDS011;31567;54.600;9.842;2023-12-20T15:23:44;25.58;;;5.50;;
45848;SDS011;31567;54.600;9.842;2023-12-20T15:27:34;16.63;;;4.68;;
45848;SDS011;31567;54.600;9.842;2023-12-20T15:31:16;14.70;;;4.47;;
45848;SDS011;31567;54.600;9.842;2023-12-20T15:34:55;16.95;;;4.60;;
45848;SDS011;31567;54.600;9.842;2023-12-20T15:38:35;11.52;;;4.03;;
45848;SDS011;31567;54.600;9.842;2023-12-20T15:42:15;11.55;;;4.07;;
45848;SDS011;31567;54.600;9.842;2023-12-20T15:45:54;13.30;;;3.90;;
45848;SDS011;31567;54.600;9.842;2023-12-20T15:49:34;12.80;;;4.32;;
45848;SDS011;31567;54.600;9.842;2023-12-20T15:53:13;14.98;;;4.38;;
45848;SDS011;31567;54.600;9.842;2023-12-20T15:56:53;20.77;;;5.47;;
45848;SDS011;31567;54.600;9.842;2023-12-20T16:00:32;19.40;;;5.30;;
45848;SDS011;31567;54.600;9.842;2023-12-20T16:04:12;16.67;;;5.25;;
45848;SDS011;31567;54.600;9.842;2023-12-20T16:07:51;27.17;;;5.50;;
45848;SDS011;31567;54.600;9.842;2023-12-20T16:11:31;22.38;;;5.63;;
45848;SDS011;31567;54.600;9.842;2023-12-20T16:15:10;18.38;;;4.57;;
45848;SDS011;31567;54.600;9.842;2023-12-20T16:18:50;21.35;;;5.47;;
45848;SDS011;31567;54.600;9.842;2023-12-20T16:22:29;16.10;;;4.72;;
45848;SDS011;31567;54.600;9.842;2023-12-20T16:26:09;15.88;;;5.50;;
45848;SDS011;31567;54.600;9.842;2023-12-20T16:29:51;10.00;;;4.18;;
45848;SDS011;31567;54.600;9.842;2023-12-20T16:33:31;13.77;;;4.70;;
45848;SDS011;31567;54.600;9.842;2023-12-20T16:37:11;14.23;;;4.50;;
45848;SDS011;31567;54.600;9.842;2023-12-20T16:40:51;14.38;;;5.43;;
45848;SDS011;31567;54.600;9.842;2023-12-20T16:44:30;12.73;;;4.00;;
45848;SDS011;31567;54.600;9.842;2023-12-20T16:48:10;14.25;;;3.88;;
45848;SDS011;31567;54.600;9.842;2023-12-20T16:51:52;13.25;;;3.95;;
45848;SDS011;31567;54.600;9.842;2023-12-20T16:55:34;8.63;;;3.72;;
45848;SDS011;31567;54.600;9.842;2023-12-20T16:59:14;12.10;;;4.25;;
45848;SDS011;31567;54.600;9.842;2023-12-20T17:02:54;11.57;;;3.90;;
45848;SDS011;31567;54.600;9.842;2023-12-20T17:06:33;11.82;;;4.13;;
45848;SDS011;31567;54.600;9.842;2023-12-20T17:10:13;12.00;;;5.07;;
45848;SDS011;31567;54.600;9.842;2023-12-20T17:13:53;12.50;;;3.80;;
45848;SDS011;31567;54.600;9.842;2023-12-20T17:17:32;10.38;;;3.92;;
45848;SDS011;31567;54.600;9.842;2023-12-20T17:21:12;13.27;;;4.38;;
45848;SDS011;31567;54.600;9.842;2023-12-20T17:24:52;14.05;;;4.45;;
45848;SDS011;31567;54.600;9.842;2023-12-20T17:28:31;9.38;;;3.90;;
45848;SDS011;31567;54.600;9.842;2023-12-20T17:32:11;11.23;;;3.50;;
45848;SDS011;31567;54.600;9.842;2023-12-20T17:35:50;13.05;;;3.72;;
45848;SDS011;31567;54.600;9.842;2023-12-20T17:39:30;12.73;;;3.58;;
45848;SDS011;31567;54.600;9.842;2023-12-20T17:43:09;8.98;;;3.20;;
45848;SDS011;31567;54.600;9.842;2023-12-20T17:46:49;8.23;;;3.03;;
45848;SDS011;31567;54.600;9.842;2023-12-20T17:50:28;6.22;;;2.90;;
45848;SDS011;31567;54.600;9.842;2023-12-20T17:54:08;10.25;;;3.03;;
45848;SDS011;31567;54.600;9.842;2023-12-20T17:57:48;10.18;;;2.90;;
45848;SDS011;31567;54.600;9.842;2023-12-20T18:01:27;6.90;;;2.47;;
45848;SDS011;31567;54.600;9.842;2023-12-20T18:05:07;12.40;;;3.58;;
45848;SDS011;31567;54.600;9.842;2023-12-20T18:08:47;9.30;;;3.35;;
45848;SDS011;31567;54.600;9.842;2023-12-20T18:12:26;10.25;;;2.40;;
45848;SDS011;31567;54.600;9.842;2023-12-20T18:16:06;12.32;;;2.67;;
45848;SDS011;31567;54.600;9.842;2023-12-20T18:19:48;9.35;;;2.45;;
45848;SDS011;31567;54.600;9.842;2023-12-20T18:23:28;12.82;;;2.50;;
45848;SDS011;31567;54.600;9.842;2023-12-20T18:27:07;6.97;;;1.85;;
45848;SDS011;31567;54.600;9.842;2023-12-20T18:30:48;7.93;;;2.25;;
45848;SDS011;31567;54.600;9.842;2023-12-20T18:34:28;11.98;;;2.20;;
45848;SDS011;31567;54.600;9.842;2023-12-20T18:38:08;6.35;;;1.60;;
45848;SDS011;31567;54.600;9.842;2023-12-20T18:41:48;7.93;;;1.50;;
45848;SDS011;31567;54.600;9.842;2023-12-20T18:45:28;3.20;;;1.00;;
45848;SDS011;31567;54.600;9.842;2023-12-20T18:49:08;4.88;;;1.13;;
45848;SDS011;31567;54.600;9.842;2023-12-20T18:52:48;8.68;;;1.13;;
45848;SDS011;31567;54.600;9.842;2023-12-20T18:56:27;5.70;;;1.00;;
45848;SDS011;31567;54.600;9.842;2023-12-20T19:00:07;7.40;;;1.88;;
45848;SDS011;31567;54.600;9.842;2023-12-20T19:03:48;2.28;;;0.52;;
45848;SDS011;31567;54.600;9.842;2023-12-20T19:07:28;5.38;;;0.70;;
45848;SDS011;31567;54.600;9.842;2023-12-20T19:11:07;9.02;;;1.00;;
45848;SDS011;31567;54.600;9.842;2023-12-20T19:14:47;3.78;;;1.02;;
45848;SDS011;31567;54.600;9.842;2023-12-20T19:18:27;4.05;;;0.80;;
45848;SDS011;31567;54.600;9.842;2023-12-20T19:22:06;4.05;;;1.00;;
45848;SDS011;31567;54.600;9.842;2023-12-20T19:25:46;7.70;;;1.40;;
45848;SDS011;31567;54.600;9.842;2023-12-20T19:29:26;7.18;;;2.00;;
45848;SDS011;31567;54.600;9.842;2023-12-20T19:33:05;9.15;;;1.55;;
45848;SDS011;31567;54.600;9.842;2023-12-20T19:36:45;5.07;;;1.05;;
45848;SDS011;31567;54.600;9.842;2023-12-20T19:40:24;5.65;;;1.42;;
45848;SDS011;31567;54.600;9.842;2023-12-20T19:44:04;8.93;;;1.73;;
45848;SDS011;31567;54.600;9.842;2023-12-20T19:47:48;6.30;;;1.20;;
45848;SDS011;31567;54.600;9.842;2023-12-20T19:51:29;10.43;;;1.35;;
45848;SDS011;31567;54.600;9.842;2023-12-20T19:55:09;10.13;;;1.80;;
45848;SDS011;31567;54.600;9.842;2023-12-20T19:58:49;7.63;;;1.35;;
45848;SDS011;31567;54.600;9.842;2023-12-20T20:02:28;7.45;;;1.20;;
45848;SDS011;31567;54.600;9.842;2023-12-20T20:06:08;12.85;;;1.70;;
45848;SDS011;31567;54.600;9.842;2023-12-20T20:09:49;8.27;;;1.50;;
45848;SDS011;31567;54.600;9.842;2023-12-20T20:13:28;10.82;;;1.45;;
45848;SDS011;31567;54.600;9.842;2023-12-20T20:17:08;8.70;;;1.42;;
45848;SDS011;31567;54.600;9.842;2023-12-20T20:20:48;7.85;;;1.70;;
45848;SDS011;31567;54.600;9.842;2023-12-20T20:24:27;7.57;;;1.48;;
45848;SDS011;31567;54.600;9.842;2023-12-20T20:28:07;8.45;;;1.38;;
45848;SDS011;31567;54.600;9.842;2023-12-20T20:31:46;8.23;;;1.50;;
45848;SDS011;31567;54.600;9.842;2023-12-20T20:35:26;9.68;;;1.67;;
45848;SDS011;31567;54.600;9.842;2023-12-20T20:39:05;5.47;;;1.15;;
45848;SDS011;31567;54.600;9.842;2023-12-20T20:42:45;10.30;;;1.52;;
45848;SDS011;31567;54.600;9.842;2023-12-20T20:46:25;12.52;;;2.00;;
45848;SDS011;31567;54.600;9.842;2023-12-20T20:50:06;11.30;;;1.67;;
45848;SDS011;31567;54.600;9.842;2023-12-20T20:53:46;13.73;;;2.17;;
45848;SDS011;31567;54.600;9.842;2023-12-20T20:57:26;7.50;;;2.58;;
45848;SDS011;31567;54.600;9.842;2023-12-20T21:01:05;8.35;;;1.58;;
45848;SDS011;31567;54.600;9.842;2023-12-20T21:04:46;7.82;;;2.65;;
45848;SDS011;31567;54.600;9.842;2023-12-20T21:08:28;11.18;;;1.92;;
45848;SDS011;31567;54.600;9.842;2023-12-20T21:12:08;9.75;;;1.50;;
45848;SDS011;31567;54.600;9.842;2023-12-20T21:15:47;7.57;;;1.73;;
45848;SDS011;31567;54.600;9.842;2023-12-20T21:19:27;12.93;;;2.35;;
45848;SDS011;31567;54.600;9.842;2023-12-20T21:23:06;10.40;;;1.75;;
45848;SDS011;31567;54.600;9.842;2023-12-20T21:26:49;9.15;;;2.13;;
45848;SDS011;31567;54.600;9.842;2023-12-20T21:30:29;9.45;;;1.85;;
45848;SDS011;31567;54.600;9.842;2023-12-20T21:34:13;8.23;;;2.17;;
45848;SDS011;31567;54.600;9.842;2023-12-20T21:37:52;9.25;;;1.75;;
45848;SDS011;31567;54.600;9.842;2023-12-20T21:41:32;13.68;;;1.95;;
45848;SDS011;31567;54.600;9.842;2023-12-20T21:45:11;11.75;;;2.30;;
45848;SDS011;31567;54.600;9.842;2023-12-20T21:48:51;12.45;;;2.20;;
45848;SDS011;31567;54.600;9.842;2023-12-20T21:52:31;16.83;;;2.40;;
45848;SDS011;31567;54.600;9.842;2023-12-20T21:56:10;9.52;;;2.08;;
45848;SDS011;31567;54.600;9.842;2023-12-20T21:59:50;11.52;;;1.80;;
45848;SDS011;31567;54.600;9.842;2023-12-20T22:03:29;9.45;;;1.67;;